2 luglio 2022

Tempo Codice Tempo metereologico Temp. Vista Base nuvolosa Vento METAR/SPECI
9:50 pm
V
66 °F 6¼ mi+ - 090° 090° 5 kt METAR EDDS 021950Z AUTO 09005KT CAVOK 19/15 Q1019 NOSIG
9:20 pm
V
70 °F 6¼ mi+ - 090° 090° 4 kt METAR EDDS 021920Z AUTO 09004KT CAVOK 21/13 Q1019
8:50 pm
V
72 °F 6¼ mi+ - 070° 070° 5 kt METAR EDDS 021850Z AUTO 07005KT CAVOK 22/13 Q1019
8:20 pm
V
73 °F 6¼ mi+ - 080° 080° 6 kt METAR EDDS 021820Z AUTO 08006KT CAVOK 23/12 Q1019
7:50 pm
V
75 °F 6¼ mi+ - 080° 080° 4 kt METAR EDDS 021750Z AUTO 08004KT 050V110 CAVOK 24/11 Q1019 NOSIG
7:20 pm
V
75 °F 6¼ mi+ - 090° 090° 5 kt METAR EDDS 021720Z AUTO 09005KT CAVOK 24/12 Q1019
6:50 pm
V
77 °F 6¼ mi+ - 080° 080° 6 kt METAR EDDS 021650Z AUTO 08006KT 040V100 CAVOK 25/11 Q1019 NOSIG
6:20 pm
V
77 °F 6¼ mi+ - 090° 090° 6 kt METAR EDDS 021620Z AUTO 09006KT 060V160 CAVOK 25/11 Q1019 NOSIG
5:50 pm
V
77 °F 6¼ mi+ - 090° 090° 8 kt METAR EDDS 021550Z AUTO 09008KT 060V160 CAVOK 25/10 Q1020 NOSIG
5:20 pm
V
77 °F 6¼ mi+ - 120° 120° 6 kt METAR EDDS 021520Z AUTO 12006KT 080V170 CAVOK 25/10 Q1020 NOSIG
4:50 pm
V
77 °F 6¼ mi+ - 120° 120° 5 kt METAR EDDS 021450Z AUTO 12005KT 040V200 CAVOK 25/11 Q1020 NOSIG
4:20 pm
V
77 °F 6¼ mi+ - 080° 080° 7 kt METAR EDDS 021420Z AUTO 08007KT 030V110 CAVOK 25/12 Q1021 NOSIG
3:50 pm
V
75 °F 6¼ mi+ - 090° 090° 5 kt METAR EDDS 021350Z AUTO 09005KT 030V160 CAVOK 24/12 Q1021 NOSIG
3:20 pm
V
75 °F 6¼ mi+ - 070° 070° 8 kt METAR EDDS 021320Z AUTO 07008KT 050V120 CAVOK 24/12 Q1021 NOSIG
2:50 pm
V
75 °F 6¼ mi+ - 110° 110° 7 kt METAR EDDS 021250Z AUTO 11007KT 040V190 CAVOK 24/12 Q1021 NOSIG
2:20 pm
V
73 °F 6¼ mi+ - 110° 110° 5 kt METAR EDDS 021220Z AUTO 11005KT 060V190 CAVOK 23/11 Q1022 NOSIG
1:50 pm
V
73 °F 6¼ mi+ - 080° 080° 8 kt METAR EDDS 021150Z AUTO 08008KT 360V150 CAVOK 23/10 Q1022 NOSIG
1:20 pm
V
73 °F 6¼ mi+ - 100° 100° 9 kt METAR EDDS 021120Z AUTO 10009KT 070V160 CAVOK 23/10 Q1022 NOSIG
12:50 pm
V
72 °F 6¼ mi+ - 090° 090° 9 kt METAR EDDS 021050Z AUTO 09009KT 060V130 CAVOK 22/10 Q1023 NOSIG
12:20 pm
V
72 °F 6¼ mi+ - 090° 090° 9 kt METAR EDDS 021020Z AUTO 09009KT 050V160 CAVOK 22/10 Q1023 NOSIG
11:50 am
V
72 °F 6¼ mi+ - 080° 080° 10 kt METAR EDDS 020950Z AUTO 08010KT 050V120 CAVOK 22/10 Q1023 NOSIG
11:20 am
V
70 °F 6¼ mi+ - 080° 080° 8 kt METAR EDDS 020920Z AUTO 08008KT 050V110 CAVOK 21/11 Q1023 NOSIG
10:50 am
V
68 °F 6¼ mi+ - 070° 070° 7 kt METAR EDDS 020850Z AUTO 07007KT 030V110 CAVOK 20/12 Q1023 NOSIG
10:20 am
V
66 °F 6¼ mi+ - Var Var 5 kt METAR EDDS 020820Z AUTO VRB05KT CAVOK 19/13 Q1023 NOSIG
9:50 am
V
64 °F 6¼ mi+ - 090° 090° 5 kt METAR EDDS 020750Z AUTO 09005KT 040V120 CAVOK 18/12 Q1024 NOSIG
9:20 am
V
63 °F 6¼ mi+ - 090° 090° 4 kt METAR EDDS 020720Z AUTO 09004KT 050V160 CAVOK 17/13 Q1024 NOSIG
8:50 am
V
61 °F 6¼ mi+ - 080° 080° 3 kt METAR EDDS 020650Z AUTO 08003KT 360V160 CAVOK 16/13 Q1024 NOSIG
8:20 am
V
61 °F 6¼ mi+ - Var Var 1 kt METAR EDDS 020620Z AUTO VRB01KT CAVOK 16/13 Q1024 NOSIG
7:50 am
V
59 °F 6¼ mi+ - 070° 070° 3 kt METAR EDDS 020550Z AUTO 07003KT 050V110 CAVOK 15/12 Q1024 NOSIG
7:20 am
V
57 °F 6¼ mi+ - Var Var 2 kt METAR EDDS 020520Z AUTO VRB02KT CAVOK 14/12 Q1024 NOSIG
6:50 am
V
57 °F 6¼ mi+ - Var Var 1 kt METAR EDDS 020450Z AUTO VRB01KT CAVOK 14/12 Q1024 NOSIG
6:20 am
V
57 °F 6¼ mi+ - Var Var 1 kt METAR EDDS 020420Z AUTO VRB01KT CAVOK 14/11 Q1024 NOSIG
5:50 am
V
52 °F 6¼ mi+ - Var Var 1 kt METAR EDDS 020350Z AUTO VRB01KT CAVOK 11/11 Q1024
5:20 am
V
52 °F 6¼ mi+ - Var Var 1 kt METAR EDDS 020320Z AUTO VRB01KT CAVOK 11/11 Q1023
4:50 am
V
52 °F 6¼ mi+ - Var Var 2 kt METAR EDDS 020250Z AUTO VRB02KT CAVOK 11/11 Q1023
4:20 am
V
54 °F 6¼ mi+ - Var Var 2 kt METAR EDDS 020220Z AUTO VRB02KT CAVOK 12/11 Q1023
3:50 am
V
55 °F 6¼ mi+ - Var 000° 0 kt METAR EDDS 020150Z AUTO 00000KT CAVOK 13/12 Q1023
3:20 am
V
55 °F 6¼ mi+ - Var Var 1 kt METAR EDDS 020120Z AUTO VRB01KT CAVOK 13/12 Q1023
2:50 am
V
54 °F 6¼ mi+ - Var Var 1 kt METAR EDDS 020050Z AUTO VRB01KT CAVOK 12/11 Q1024
2:20 am
V
54 °F 6¼ mi+ - Var 000° 0 kt METAR EDDS 020020Z AUTO 00000KT CAVOK 12/11 Q1024
1:50 am
V
54 °F 6¼ mi+ - 060° 060° 1 kt METAR EDDS 012350Z AUTO 06001KT CAVOK 12/11 Q1024
1:20 am
V
54 °F 6¼ mi+ - Var Var 1 kt METAR EDDS 012320Z AUTO VRB01KT CAVOK 12/12 Q1024
12:50 am
V
54 °F 6¼ mi+ - Var Var 2 kt METAR EDDS 012250Z AUTO VRB02KT CAVOK 12/12 Q1024
12:20 am
V
55 °F 6¼ mi+ - Var Var 2 kt METAR EDDS 012220Z AUTO VRB02KT CAVOK 13/12 Q1023

1 luglio 2022

Tempo Codice Tempo metereologico Temp. Vista Base nuvolosa Vento METAR/SPECI
11:50 pm
V
57 °F 6¼ mi+ - 070° 070° 3 kt METAR EDDS 012150Z AUTO 07003KT CAVOK 14/11 Q1023
11:20 pm
V
57 °F 6¼ mi+ - 060° 060° 3 kt METAR EDDS 012120Z AUTO 06003KT CAVOK 14/12 Q1023
10:50 pm
V
57 °F 6¼ mi+ - Var Var 2 kt METAR EDDS 012050Z AUTO VRB02KT CAVOK 14/11 Q1023
10:20 pm
V
59 °F 6¼ mi+ - Var Var 1 kt METAR EDDS 012020Z AUTO VRB01KT CAVOK 15/12 Q1023
9:50 pm
V
61 °F 6¼ mi+ - 160° 160° 2 kt METAR EDDS 011950Z AUTO 16002KT CAVOK 16/12 Q1022
9:20 pm
V
63 °F 6¼ mi+ - Var Var 2 kt METAR EDDS 011920Z AUTO VRB02KT CAVOK 17/12 Q1022
8:50 pm
V
64 °F 6¼ mi+ - 160° 160° 3 kt METAR EDDS 011850Z AUTO 16003KT 120V200 CAVOK 18/12 Q1022 NOSIG
8:20 pm
V
64 °F 6¼ mi+ - Var Var 2 kt METAR EDDS 011820Z AUTO VRB02KT CAVOK 18/13 Q1022 NOSIG
7:50 pm
V
66 °F 6¼ mi+ - 130° 130° 3 kt METAR EDDS 011750Z AUTO 13003KT 070V190 CAVOK 19/11 Q1022 NOSIG
7:20 pm
V
66 °F 6¼ mi+ - Var Var 2 kt METAR EDDS 011720Z AUTO VRB02KT 9999 FEW038 19/11 Q1021 NOSIG
6:50 pm
V
68 °F 6¼ mi+ - 140° 140° 3 kt METAR EDDS 011650Z AUTO 14003KT 070V190 9999 FEW035 20/11 Q1021 NOSIG
6:20 pm
V
66 °F 6¼ mi+ - Var Var 3 kt METAR EDDS 011620Z AUTO VRB03KT 9999 FEW032 19/11 Q1021 NOSIG
5:50 pm
V
66 °F 6¼ mi+ - 090° 090° 4 kt METAR EDDS 011550Z AUTO 09004KT 020V180 CAVOK 19/12 Q1021 NOSIG
5:20 pm
V
64 °F 6¼ mi+ - 130° 130° 4 kt METAR EDDS 011520Z AUTO 13004KT 070V180 9999 FEW026 18/12 Q1021 NOSIG
4:50 pm
V
64 °F 6¼ mi+ - Var Var 2 kt METAR EDDS 011450Z AUTO VRB02KT 9999 FEW022 SCT031 18/12 Q1021 NOSIG
4:20 pm
V
63 °F 6¼ mi+ 4.900 ft Var Var 4 kt METAR EDDS 011420Z AUTO VRB04KT 9999 SCT020 BKN049 17/12 Q1021 NOSIG
3:50 pm
V
63 °F 6¼ mi+ 4.100 ft 110° 110° 5 kt METAR EDDS 011350Z AUTO 11005KT 070V200 9999 FEW016 BKN041 17/13 Q1021 NOSIG
3:20 pm
M
61 °F 6¼ mi+ 2.200 ft 100° 100° 5 kt METAR EDDS 011320Z AUTO 10005KT 070V190 9999 FEW016 BKN022 16/12 Q1021 NOSIG
2:50 pm
V
61 °F 6¼ mi+ - 110° 110° 4 kt METAR EDDS 011250Z AUTO 11004KT 040V210 9999 SCT015 16/12 Q1021
2:20 pm
V
59 °F 6¼ mi+ 3.800 ft Var Var 2 kt METAR EDDS 011220Z AUTO VRB02KT 9999 SCT022 BKN038 15/12 Q1021 NOSIG
1:50 pm
M
59 °F 6¼ mi+ 1.800 ft 110° 110° 3 kt METAR EDDS 011150Z AUTO 11003KT 070V160 9999 BKN018 BKN032 BKN039 15/12 Q1021 NOSIG
1:20 pm
M
59 °F 6¼ mi+ 2.900 ft Var Var 2 kt METAR EDDS 011120Z AUTO VRB02KT 9999 SCT015 BKN029 15/12 Q1021 NOSIG
12:50 pm
M
57 °F 6¼ mi+ 1.100 ft Var Var 1 kt METAR EDDS 011050Z AUTO VRB01KT 9999 BKN011 BKN045 14/12 Q1021 NOSIG
12:20 pm
V
57 °F 6¼ mi+ 3.000 ft 280° 280° 3 kt METAR EDDS 011020Z AUTO 28003KT 240V320 9999 SCT010 BKN030 OVC046 14/12 Q1020 NOSIG
11:50 am
M
55 °F 4⅜ mi 2.600 ft 300° 300° 3 kt METAR EDDS 010950Z AUTO 30003KT 280V340 7000 -RA SCT010 BKN026 13/11 Q1020 RERA NOSIG
11:20 am
V
55 °F 6¼ mi+ 3.800 ft 310° 310° 4 kt METAR EDDS 010920Z AUTO 31004KT 9999 -RA FEW009 BKN038 13/12 Q1020
10:50 am
M
57 °F 6¼ mi+ 2.600 ft 320° 320° 4 kt METAR EDDS 010850Z AUTO 32004KT 270V360 9999 -RA FEW009 BKN026 BKN032 14/11 Q1020 TEMPO RA
10:20 am
M
55 °F 6¼ mi+ 2.600 ft 300° 300° 3 kt METAR EDDS 010820Z AUTO 30003KT 260V340 9999 -RADZ FEW009 BKN026 13/11 Q1020 TEMPO RA BKN013
9:50 am
M
55 °F 6¼ mi+ 1.800 ft 300° 300° 5 kt METAR EDDS 010750Z AUTO 30005KT 9999 -RA FEW008 BKN018 BKN022 13/12 Q1020 TEMPO BKN013
9:20 am
M
55 °F 6¼ mi+ 1.300 ft 280° 280° 6 kt METAR EDDS 010720Z AUTO 28006KT 230V310 9999 -RA SCT009 BKN013 BKN018 13/12 Q1020 TEMPO RA BKN009
8:50 am
M
55 °F 6¼ mi+ 2.500 ft 320° 320° 3 kt METAR EDDS 010650Z AUTO 32003KT 270V030 9999 -RA FEW009 BKN025 13/12 Q1019 NOSIG
8:20 am
M
55 °F 6¼ mi+ 2.300 ft Var Var 1 kt METAR EDDS 010620Z AUTO VRB01KT 9999 -RA FEW011 BKN023 13/11 Q1019 NOSIG
7:50 am
M
55 °F 6¼ mi+ 2.400 ft Var Var 2 kt METAR EDDS 010550Z AUTO VRB02KT 9999 -RADZ FEW008 BKN024 BKN043 13/12 Q1019 RERA TEMPO RA
7:20 am
I
55 °F 2⅝ mi 1.800 ft 300° 300° 5 kt METAR EDDS 010520Z AUTO 30005KT 4300 RA BR FEW009 BKN018 BKN039 13/11 Q1019 BECMG 6000 NSW
6:50 am
M
55 °F 6¼ mi+ 1.800 ft 310° 310° 4 kt METAR EDDS 010450Z AUTO 31004KT 280V340 9999 -RA BKN018 OVC034 13/11 Q1019 RESHRA TEMPO SHRA BKN012CB
6:20 am
M
55 °F 6¼ mi+ 2.900 ft 280° 280° 7 kt METAR EDDS 010420Z AUTO 28007KT 9999 SHRA SCT014 OVC029 FEW///CB 13/11 Q1018 TEMPO NSW
5:50 am
M
55 °F 6¼ mi+ 1.400 ft 290° 290° 8 kt METAR EDDS 010350Z AUTO 29008KT 9999 SHRA BKN014 OVC031 FEW///CB 13/11 Q1018
5:20 am
V
55 °F 6¼ mi+ 3.300 ft 280° 280° 7 kt METAR EDDS 010320Z AUTO 28007KT 240V310 9999 SCT012 BKN033 13/12 Q1017
4:50 am
V
55 °F 6¼ mi+ 3.100 ft 280° 280° 10 kt METAR EDDS 010250Z AUTO 28010KT 9999 BKN031 13/11 Q1017
4:20 am
V
55 °F 6¼ mi+ - 290° 290° 8 kt METAR EDDS 010220Z AUTO 29008KT 260V320 9999 -RA SCT024 13/11 Q1016
3:50 am
M
55 °F 6¼ mi+ 2.400 ft 300° 300° 8 kt METAR EDDS 010150Z AUTO 30008KT 9999 -RA OVC024 13/12 Q1017
3:20 am
M
55 °F 6¼ mi+ 2.400 ft 310° 310° 4 kt METAR EDDS 010120Z AUTO 31004KT 9999 -DZ OVC024 13/11 Q1017 RERA
2:50 am
M
55 °F 6¼ mi+ 2.200 ft 320° 320° 6 kt METAR EDDS 010050Z AUTO 32006KT 290V350 9999 RA OVC022 13/12 Q1018
2:20 am
M
57 °F 6¼ mi+ 1.900 ft 290° 290° 7 kt METAR EDDS 010020Z AUTO 29007KT 9999 SHRA BKN019 FEW///CB 14/12 Q1018
1:50 am
M
57 °F 4⅜ mi 1.800 ft 340° 340° 6 kt METAR EDDS 302350Z AUTO 34006KT 7000 +SHRA FEW008 OVC018 FEW///CB 14/13 Q1017
1:20 am
M
59 °F 6¼ mi+ 2.900 ft 010° 010° 3 kt METAR EDDS 302320Z AUTO 01003KT 320V070 9999 SHRA FEW009 BKN029 FEW///CB 15/14 Q1018
12:50 am
M
61 °F 6¼ mi+ 2.900 ft 300° 300° 7 kt METAR EDDS 302250Z AUTO 30007KT 270V330 9999 -RA FEW010 BKN029 16/14 Q1017 RESHRA
12:20 am
V
61 °F 5⅝ mi - 020° 020° 9 kt METAR EDDS 302220Z AUTO 02009KT 300V080 9000 SHRA VCTS SCT008 FEW///CB 16/16 Q1017 RETS

30 giugno 2022

Tempo Codice Tempo metereologico Temp. Vista Base nuvolosa Vento METAR/SPECI
11:50 pm
V
63 °F 6¼ mi+ - 360° 360° 6 kt METAR EDDS 302150Z AUTO 36006KT 330V030 9999 +TSRA FEW008 SCT///CB 17/16 Q1015
11:20 pm
I
64 °F 1⅞ mi 3.900 ft 230° 230° 10 kt METAR EDDS 302120Z AUTO 23010KT 150V290 9999 3000 +TSGRRA BR FEW005 BKN039 BKN///CB 18/16 Q1015
10:50 pm
V
68 °F 6¼ mi+ 4.700 ft 180° 180° 4 kt METAR EDDS 302050Z AUTO 18004KT 140V230 9999 -SHRA BKN047 FEW///CB 20/17 Q1014 RESHRA
10:20 pm
V
68 °F 6¼ mi+ - 220° 220° 3 kt METAR EDDS 302020Z AUTO 22003KT 160V270 9999 SHRA VCTS FEW///CB 20/17 Q1013 RETS
9:50 pm
V
68 °F 6¼ mi+ - 150° 150° 4 kt METAR EDDS 301950Z AUTO 15004KT 100V220 9999 +TSGRRA SCT///CB 20/17 Q1012 TEMPO NSW
9:20 pm
V
70 °F 6¼ mi+ - 320° 320° 7 kt METAR EDDS 301920Z AUTO 32007KT 280V030 9999 +TSRA SCT///CB 21/16 Q1012 TEMPO NSW
8:50 pm
V
70 °F 6¼ mi+ - Var Var 1 kt METAR EDDS 301850Z AUTO VRB01KT CAVOK 21/16 Q1011 NOSIG
8:20 pm
V
70 °F 6¼ mi+ - 270° 270° 6 kt METAR EDDS 301820Z AUTO 27006KT CAVOK 21/16 Q1012 NOSIG
7:50 pm
V
70 °F 6¼ mi+ - 260° 260° 8 kt METAR EDDS 301750Z AUTO 26008KT CAVOK 21/17 Q1011 TEMPO 28015G30KT 4000 TSRA
7:20 pm
V
72 °F 6¼ mi+ - Var Var 3 kt METAR EDDS 301720Z AUTO VRB03KT CAVOK 22/19 Q1010 TEMPO 28015G30KT 4000 TSRA
6:50 pm
V
70 °F 6¼ mi+ - 140° 140° 5 kt METAR EDDS 301650Z AUTO 14005KT 100V180 CAVOK 21/20 Q1010 RESHRA TEMPO 28015G30KT 4000 TSRA
6:20 pm
V
72 °F 6¼ mi+ - 270° 270° 7 kt METAR EDDS 301620Z AUTO 27007KT 9999 SHRA FEW///TCU 22/19 Q1011 RETS TEMPO 28015G30KT 4000 TSRA
5:50 pm
V
70 °F 6¼ mi+ - Var Var 4 kt METAR EDDS 301550Z AUTO VRB04KT 9999 +TSGRRA FEW011 SCT///CB 21/19 Q1011 TEMPO NSW
5:20 pm
V
82 °F 6¼ mi+ - Var Var 1 kt METAR EDDS 301520Z AUTO VRB01KT 9999 +TSGRRA BKN///CB 28/15 Q1011 TEMPO 28015G30KT 4000
4:50 pm
V
82 °F 6¼ mi+ - Var Var 1 kt METAR EDDS 301450Z AUTO VRB01KT 9999 -SHRA FEW///TCU 28/16 Q1010 TEMPO 28015G30KT 4000 TSRA BKN030CB
Dati più vecchi

Scarica la nostra applicazione

Facile accesso a tutte le previsioni dell'aviazione sul tuo cellulare e tablet.
Con molte caratteristiche non disponibili sul sito web, come il supporto offline e una lista personale di aeroporti.

Noi e le terze parti seguiamo il tuo comportamento in internet sul nostro sito web con i cookie. Se continui, riteniamo che tu sia d'accordo con la nostra politica sui cookie. Per saperne di più